Terminal Aerodrome Forecast
Issued by NWS

Home | Current Version | Previous Version | Graphics & Text | Print | Product List | Glossary On
Versions: 1 2 3 4 5 6 7 8 9 10 11 12 13 14 15 16 17 18 19 20 21
000
FTUS43 KICT 280520
TAFSLN
TAF
KSLN 280520Z 2806/2906 17014G21KT P6SM -TSRA SCT040CB BKN100
     FM281200 21011KT P6SM VCTS BKN050CB
     FM281800 26008KT P6SM BKN050
     FM290100 36004KT P6SM BKN050=

USA.gov is the U.S. government's official web portal to all federal, state and local government web resources and services.